sensor_id;sensor_type;location;lat;lon;timestamp;temperature;humidity
12166;DHT22;6146;48.128;11.476;2023-12-20T00:00:17;6.40;98.90
12166;DHT22;6146;48.128;11.476;2023-12-20T00:02:43;6.40;99.20
12166;DHT22;6146;48.128;11.476;2023-12-20T00:05:13;6.40;99.30
12166;DHT22;6146;48.128;11.476;2023-12-20T00:07:38;6.30;99.70
12166;DHT22;6146;48.128;11.476;2023-12-20T00:10:04;6.40;99.70
12166;DHT22;6146;48.128;11.476;2023-12-20T00:12:30;6.40;99.90
12166;DHT22;6146;48.128;11.476;2023-12-20T00:14:55;6.50;99.90
12166;DHT22;6146;48.128;11.476;2023-12-20T00:17:21;6.50;99.90
12166;DHT22;6146;48.128;11.476;2023-12-20T00:19:46;6.50;99.90
12166;DHT22;6146;48.128;11.476;2023-12-20T00:22:12;6.60;99.70
12166;DHT22;6146;48.128;11.476;2023-12-20T00:24:38;6.60;99.20
12166;DHT22;6146;48.128;11.476;2023-12-20T00:27:03;6.70;99.20
12166;DHT22;6146;48.128;11.476;2023-12-20T00:29:29;6.70;98.20
12166;DHT22;6146;48.128;11.476;2023-12-20T00:31:54;6.80;97.70
12166;DHT22;6146;48.128;11.476;2023-12-20T00:34:20;6.80;97.00
12166;DHT22;6146;48.128;11.476;2023-12-20T00:36:45;6.90;96.70
12166;DHT22;6146;48.128;11.476;2023-12-20T00:39:11;6.90;96.30
12166;DHT22;6146;48.128;11.476;2023-12-20T00:41:36;7.00;96.20
12166;DHT22;6146;48.128;11.476;2023-12-20T00:44:02;7.00;95.90
12166;DHT22;6146;48.128;11.476;2023-12-20T00:46:28;7.00;96.10
12166;DHT22;6146;48.128;11.476;2023-12-20T00:48:53;7.00;95.70
12166;DHT22;6146;48.128;11.476;2023-12-20T00:51:19;7.10;95.80
12166;DHT22;6146;48.128;11.476;2023-12-20T00:53:44;7.10;96.10
12166;DHT22;6146;48.128;11.476;2023-12-20T00:56:11;7.00;95.80
12166;DHT22;6146;48.128;11.476;2023-12-20T00:58:37;7.10;96.10
12166;DHT22;6146;48.128;11.476;2023-12-20T01:01:02;7.10;95.90
12166;DHT22;6146;48.128;11.476;2023-12-20T01:03:29;7.10;96.10
12166;DHT22;6146;48.128;11.476;2023-12-20T01:05:55;7.10;95.90
12166;DHT22;6146;48.128;11.476;2023-12-20T01:08:20;7.60;96.30
12166;DHT22;6146;48.128;11.476;2023-12-20T01:10:46;7.10;96.10
12166;DHT22;6146;48.128;11.476;2023-12-20T01:13:12;7.00;96.00
12166;DHT22;6146;48.128;11.476;2023-12-20T01:15:37;7.10;96.40
12166;DHT22;6146;48.128;11.476;2023-12-20T01:18:03;7.10;96.30
12166;DHT22;6146;48.128;11.476;2023-12-20T01:20:29;7.00;96.60
12166;DHT22;6146;48.128;11.476;2023-12-20T01:22:54;7.00;96.90
12166;DHT22;6146;48.128;11.476;2023-12-20T01:25:20;7.10;96.90
12166;DHT22;6146;48.128;11.476;2023-12-20T01:27:45;7.10;97.40
12166;DHT22;6146;48.128;11.476;2023-12-20T01:30:11;7.00;97.60
12166;DHT22;6146;48.128;11.476;2023-12-20T01:32:37;7.10;97.80
12166;DHT22;6146;48.128;11.476;2023-12-20T01:35:02;7.10;97.90
12166;DHT22;6146;48.128;11.476;2023-12-20T01:37:28;7.00;97.90
12166;DHT22;6146;48.128;11.476;2023-12-20T01:39:54;7.10;98.10
12166;DHT22;6146;48.128;11.476;2023-12-20T01:42:20;7.10;97.80
12166;DHT22;6146;48.128;11.476;2023-12-20T01:44:45;7.00;98.00
12166;DHT22;6146;48.128;11.476;2023-12-20T01:47:11;7.00;98.00
12166;DHT22;6146;48.128;11.476;2023-12-20T01:49:37;7.10;98.00
12166;DHT22;6146;48.128;11.476;2023-12-20T01:52:03;7.10;97.60
12166;DHT22;6146;48.128;11.476;2023-12-20T01:54:29;7.10;97.80
12166;DHT22;6146;48.128;11.476;2023-12-20T01:56:55;7.10;98.00
12166;DHT22;6146;48.128;11.476;2023-12-20T01:59:21;7.10;97.90
12166;DHT22;6146;48.128;11.476;2023-12-20T02:01:47;7.10;97.80
12166;DHT22;6146;48.128;11.476;2023-12-20T02:04:13;7.10;98.00
12166;DHT22;6146;48.128;11.476;2023-12-20T02:06:40;7.10;97.70
12166;DHT22;6146;48.128;11.476;2023-12-20T02:09:06;7.20;97.80
12166;DHT22;6146;48.128;11.476;2023-12-20T02:11:33;7.20;97.80
12166;DHT22;6146;48.128;11.476;2023-12-20T02:13:58;7.20;98.30
12166;DHT22;6146;48.128;11.476;2023-12-20T02:16:24;7.20;98.10
12166;DHT22;6146;48.128;11.476;2023-12-20T02:18:50;7.20;98.40
12166;DHT22;6146;48.128;11.476;2023-12-20T02:21:15;7.30;98.50
12166;DHT22;6146;48.128;11.476;2023-12-20T02:23:41;7.30;98.70
12166;DHT22;6146;48.128;11.476;2023-12-20T02:26:07;7.30;98.80
12166;DHT22;6146;48.128;11.476;2023-12-20T02:28:32;7.30;99.10
12166;DHT22;6146;48.128;11.476;2023-12-20T02:30:58;7.40;99.20
12166;DHT22;6146;48.128;11.476;2023-12-20T02:33:24;7.50;99.60
12166;DHT22;6146;48.128;11.476;2023-12-20T02:35:49;7.50;99.50
12166;DHT22;6146;48.128;11.476;2023-12-20T02:38:15;7.50;99.90
12166;DHT22;6146;48.128;11.476;2023-12-20T02:40:41;7.50;99.90
12166;DHT22;6146;48.128;11.476;2023-12-20T02:43:06;7.50;99.90
12166;DHT22;6146;48.128;11.476;2023-12-20T02:45:32;7.50;99.90
12166;DHT22;6146;48.128;11.476;2023-12-20T02:47:57;7.50;99.90
12166;DHT22;6146;48.128;11.476;2023-12-20T02:50:23;7.50;99.90
12166;DHT22;6146;48.128;11.476;2023-12-20T02:52:49;7.50;99.90
12166;DHT22;6146;48.128;11.476;2023-12-20T02:55:14;7.50;99.90
12166;DHT22;6146;48.128;11.476;2023-12-20T02:57:40;7.50;99.90
12166;DHT22;6146;48.128;11.476;2023-12-20T03:00:09;7.50;99.90
12166;DHT22;6146;48.128;11.476;2023-12-20T03:02:35;7.50;99.90
12166;DHT22;6146;48.128;11.476;2023-12-20T03:05:01;7.40;99.90
12166;DHT22;6146;48.128;11.476;2023-12-20T03:07:27;7.40;99.90
12166;DHT22;6146;48.128;11.476;2023-12-20T03:09:52;7.40;99.90
12166;DHT22;6146;48.128;11.476;2023-12-20T03:12:18;7.40;99.90
12166;DHT22;6146;48.128;11.476;2023-12-20T03:14:44;7.50;99.90
12166;DHT22;6146;48.128;11.476;2023-12-20T03:17:10;7.50;99.90
12166;DHT22;6146;48.128;11.476;2023-12-20T03:19:35;7.50;99.90
12166;DHT22;6146;48.128;11.476;2023-12-20T03:22:01;7.50;99.90
12166;DHT22;6146;48.128;11.476;2023-12-20T03:24:27;7.50;99.90
12166;DHT22;6146;48.128;11.476;2023-12-20T03:26:53;7.50;99.90
12166;DHT22;6146;48.128;11.476;2023-12-20T03:29:18;7.50;99.90
12166;DHT22;6146;48.128;11.476;2023-12-20T03:31:44;7.50;99.90
12166;DHT22;6146;48.128;11.476;2023-12-20T03:34:09;7.50;99.90
12166;DHT22;6146;48.128;11.476;2023-12-20T03:36:35;7.50;99.90
12166;DHT22;6146;48.128;11.476;2023-12-20T03:39:01;7.50;99.90
12166;DHT22;6146;48.128;11.476;2023-12-20T03:41:27;7.50;99.90
12166;DHT22;6146;48.128;11.476;2023-12-20T03:43:52;7.50;99.90
12166;DHT22;6146;48.128;11.476;2023-12-20T03:46:18;7.50;99.90
12166;DHT22;6146;48.128;11.476;2023-12-20T03:48:43;7.50;99.90
12166;DHT22;6146;48.128;11.476;2023-12-20T03:51:09;7.50;99.90
12166;DHT22;6146;48.128;11.476;2023-12-20T03:53:34;7.40;99.90
12166;DHT22;6146;48.128;11.476;2023-12-20T03:56:00;7.40;99.90
12166;DHT22;6146;48.128;11.476;2023-12-20T03:58:25;7.30;99.90
12166;DHT22;6146;48.128;11.476;2023-12-20T04:00:51;7.20;99.90
12166;DHT22;6146;48.128;11.476;2023-12-20T04:03:16;7.20;99.90
12166;DHT22;6146;48.128;11.476;2023-12-20T04:05:42;7.20;99.90
12166;DHT22;6146;48.128;11.476;2023-12-20T04:08:08;7.10;99.90
12166;DHT22;6146;48.128;11.476;2023-12-20T04:10:34;7.10;99.90
12166;DHT22;6146;48.128;11.476;2023-12-20T04:13:00;7.10;99.90
12166;DHT22;6146;48.128;11.476;2023-12-20T04:15:25;7.10;99.90
12166;DHT22;6146;48.128;11.476;2023-12-20T04:17:51;7.10;99.90
12166;DHT22;6146;48.128;11.476;2023-12-20T04:20:16;7.00;99.90
12166;DHT22;6146;48.128;11.476;2023-12-20T04:22:42;7.00;99.90
12166;DHT22;6146;48.128;11.476;2023-12-20T04:25:08;7.00;99.90
12166;DHT22;6146;48.128;11.476;2023-12-20T04:27:33;6.90;99.90
12166;DHT22;6146;48.128;11.476;2023-12-20T04:29:59;6.90;99.90
12166;DHT22;6146;48.128;11.476;2023-12-20T04:32:25;6.90;99.90
12166;DHT22;6146;48.128;11.476;2023-12-20T04:34:50;6.80;99.90
12166;DHT22;6146;48.128;11.476;2023-12-20T04:37:16;6.70;99.90
12166;DHT22;6146;48.128;11.476;2023-12-20T04:39:41;6.70;99.90
12166;DHT22;6146;48.128;11.476;2023-12-20T04:42:08;6.70;99.90
12166;DHT22;6146;48.128;11.476;2023-12-20T04:44:33;6.70;99.90
12166;DHT22;6146;48.128;11.476;2023-12-20T04:46:59;6.60;99.90
12166;DHT22;6146;48.128;11.476;2023-12-20T04:49:25;6.60;99.90
12166;DHT22;6146;48.128;11.476;2023-12-20T04:51:51;6.60;99.90
12166;DHT22;6146;48.128;11.476;2023-12-20T04:54:16;6.60;99.90
12166;DHT22;6146;48.128;11.476;2023-12-20T04:56:42;6.60;99.90
12166;DHT22;6146;48.128;11.476;2023-12-20T04:59:07;6.30;99.90
12166;DHT22;6146;48.128;11.476;2023-12-20T05:01:33;6.50;99.90
12166;DHT22;6146;48.128;11.476;2023-12-20T05:03:59;6.50;99.90
12166;DHT22;6146;48.128;11.476;2023-12-20T05:06:24;6.40;99.90
12166;DHT22;6146;48.128;11.476;2023-12-20T05:08:50;6.30;99.90
12166;DHT22;6146;48.128;11.476;2023-12-20T05:11:15;6.30;99.90
12166;DHT22;6146;48.128;11.476;2023-12-20T05:13:41;6.20;99.90
12166;DHT22;6146;48.128;11.476;2023-12-20T05:16:07;6.20;99.90
12166;DHT22;6146;48.128;11.476;2023-12-20T05:18:34;6.10;99.90
12166;DHT22;6146;48.128;11.476;2023-12-20T05:21:00;6.10;99.90
12166;DHT22;6146;48.128;11.476;2023-12-20T05:23:25;6.00;99.90
12166;DHT22;6146;48.128;11.476;2023-12-20T05:25:51;5.90;99.90
12166;DHT22;6146;48.128;11.476;2023-12-20T05:28:16;5.90;99.90
12166;DHT22;6146;48.128;11.476;2023-12-20T05:30:42;5.80;99.90
12166;DHT22;6146;48.128;11.476;2023-12-20T05:33:08;5.80;99.90
12166;DHT22;6146;48.128;11.476;2023-12-20T05:35:34;5.80;99.90
12166;DHT22;6146;48.128;11.476;2023-12-20T05:38:00;5.80;99.90
12166;DHT22;6146;48.128;11.476;2023-12-20T05:40:25;5.80;99.90
12166;DHT22;6146;48.128;11.476;2023-12-20T05:42:51;5.70;99.90
12166;DHT22;6146;48.128;11.476;2023-12-20T05:45:16;5.60;99.90
12166;DHT22;6146;48.128;11.476;2023-12-20T05:47:42;5.60;99.90
12166;DHT22;6146;48.128;11.476;2023-12-20T05:50:08;5.60;99.90
12166;DHT22;6146;48.128;11.476;2023-12-20T05:52:34;5.60;99.90
12166;DHT22;6146;48.128;11.476;2023-12-20T05:54:59;5.50;99.90
12166;DHT22;6146;48.128;11.476;2023-12-20T05:57:27;5.50;99.90
12166;DHT22;6146;48.128;11.476;2023-12-20T05:59:53;5.50;99.90
12166;DHT22;6146;48.128;11.476;2023-12-20T06:02:18;5.40;99.90
12166;DHT22;6146;48.128;11.476;2023-12-20T06:04:44;5.40;99.90
12166;DHT22;6146;48.128;11.476;2023-12-20T06:07:12;5.40;99.90
12166;DHT22;6146;48.128;11.476;2023-12-20T06:09:38;5.30;99.90
12166;DHT22;6146;48.128;11.476;2023-12-20T06:12:04;5.30;99.90
12166;DHT22;6146;48.128;11.476;2023-12-20T06:14:30;5.30;99.90
12166;DHT22;6146;48.128;11.476;2023-12-20T06:16:56;5.30;99.90
12166;DHT22;6146;48.128;11.476;2023-12-20T06:19:22;5.20;99.90
12166;DHT22;6146;48.128;11.476;2023-12-20T06:21:48;5.20;99.90
12166;DHT22;6146;48.128;11.476;2023-12-20T06:24:13;5.20;99.90
12166;DHT22;6146;48.128;11.476;2023-12-20T06:26:39;5.10;99.90
12166;DHT22;6146;48.128;11.476;2023-12-20T06:29:04;5.10;99.90
12166;DHT22;6146;48.128;11.476;2023-12-20T06:31:30;5.10;99.90
12166;DHT22;6146;48.128;11.476;2023-12-20T06:33:57;5.10;99.90
12166;DHT22;6146;48.128;11.476;2023-12-20T06:36:25;5.10;99.90
12166;DHT22;6146;48.128;11.476;2023-12-20T06:38:51;5.00;99.90
12166;DHT22;6146;48.128;11.476;2023-12-20T06:41:16;4.90;99.90
12166;DHT22;6146;48.128;11.476;2023-12-20T06:43:42;4.90;99.90
12166;DHT22;6146;48.128;11.476;2023-12-20T06:46:08;4.90;99.90
12166;DHT22;6146;48.128;11.476;2023-12-20T06:48:34;4.90;99.90
12166;DHT22;6146;48.128;11.476;2023-12-20T06:51:01;4.90;99.90
12166;DHT22;6146;48.128;11.476;2023-12-20T06:53:30;4.80;99.90
12166;DHT22;6146;48.128;11.476;2023-12-20T06:55:55;4.80;99.90
12166;DHT22;6146;48.128;11.476;2023-12-20T06:58:25;4.80;99.90
12166;DHT22;6146;48.128;11.476;2023-12-20T07:00:50;4.80;99.90
12166;DHT22;6146;48.128;11.476;2023-12-20T07:03:17;4.80;99.90
12166;DHT22;6146;48.128;11.476;2023-12-20T07:05:43;4.80;99.90
12166;DHT22;6146;48.128;11.476;2023-12-20T07:08:08;4.80;99.90
12166;DHT22;6146;48.128;11.476;2023-12-20T07:10:34;4.70;99.90
12166;DHT22;6146;48.128;11.476;2023-12-20T07:13:00;4.70;99.90
12166;DHT22;6146;48.128;11.476;2023-12-20T07:15:25;4.70;99.90
12166;DHT22;6146;48.128;11.476;2023-12-20T07:17:52;4.70;99.90
12166;DHT22;6146;48.128;11.476;2023-12-20T07:20:17;4.60;99.90
12166;DHT22;6146;48.128;11.476;2023-12-20T07:22:43;4.70;99.90
12166;DHT22;6146;48.128;11.476;2023-12-20T07:25:08;4.70;99.90
12166;DHT22;6146;48.128;11.476;2023-12-20T07:27:34;4.70;99.90
12166;DHT22;6146;48.128;11.476;2023-12-20T07:29:59;4.70;99.90
12166;DHT22;6146;48.128;11.476;2023-12-20T07:32:25;4.70;99.90
12166;DHT22;6146;48.128;11.476;2023-12-20T07:34:51;4.70;99.90
12166;DHT22;6146;48.128;11.476;2023-12-20T07:37:16;4.70;99.90
12166;DHT22;6146;48.128;11.476;2023-12-20T07:39:42;4.70;99.90
12166;DHT22;6146;48.128;11.476;2023-12-20T07:42:08;4.70;99.90
12166;DHT22;6146;48.128;11.476;2023-12-20T07:44:34;4.70;99.90
12166;DHT22;6146;48.128;11.476;2023-12-20T07:47:01;4.60;99.90
12166;DHT22;6146;48.128;11.476;2023-12-20T07:49:26;4.70;99.90
12166;DHT22;6146;48.128;11.476;2023-12-20T07:51:52;4.70;99.90
12166;DHT22;6146;48.128;11.476;2023-12-20T07:54:18;4.70;99.90
12166;DHT22;6146;48.128;11.476;2023-12-20T07:56:43;4.70;99.90
12166;DHT22;6146;48.128;11.476;2023-12-20T07:59:10;6.30;99.90
12166;DHT22;6146;48.128;11.476;2023-12-20T08:01:35;4.80;99.90
12166;DHT22;6146;48.128;11.476;2023-12-20T08:04:01;4.80;99.90
12166;DHT22;6146;48.128;11.476;2023-12-20T08:06:26;4.80;99.90
12166;DHT22;6146;48.128;11.476;2023-12-20T08:08:52;4.80;99.90
12166;DHT22;6146;48.128;11.476;2023-12-20T08:11:18;4.80;99.90
12166;DHT22;6146;48.128;11.476;2023-12-20T08:13:43;4.80;99.90
12166;DHT22;6146;48.128;11.476;2023-12-20T08:16:09;4.80;99.90
12166;DHT22;6146;48.128;11.476;2023-12-20T08:18:35;4.80;99.90
12166;DHT22;6146;48.128;11.476;2023-12-20T08:21:01;4.80;99.90
12166;DHT22;6146;48.128;11.476;2023-12-20T08:23:27;4.80;99.90
12166;DHT22;6146;48.128;11.476;2023-12-20T08:25:52;4.80;99.90
12166;DHT22;6146;48.128;11.476;2023-12-20T08:28:18;4.80;99.90
12166;DHT22;6146;48.128;11.476;2023-12-20T08:30:43;4.80;99.90
12166;DHT22;6146;48.128;11.476;2023-12-20T08:33:09;4.80;99.90
12166;DHT22;6146;48.128;11.476;2023-12-20T08:35:41;4.80;99.90
12166;DHT22;6146;48.128;11.476;2023-12-20T08:38:07;4.80;99.90
12166;DHT22;6146;48.128;11.476;2023-12-20T08:40:32;4.80;99.90
12166;DHT22;6146;48.128;11.476;2023-12-20T08:42:58;4.80;99.90
12166;DHT22;6146;48.128;11.476;2023-12-20T08:45:23;4.80;99.90
12166;DHT22;6146;48.128;11.476;2023-12-20T08:47:49;4.80;99.90
12166;DHT22;6146;48.128;11.476;2023-12-20T08:50:15;4.90;99.90
12166;DHT22;6146;48.128;11.476;2023-12-20T08:52:41;4.90;99.90
12166;DHT22;6146;48.128;11.476;2023-12-20T08:55:07;5.00;99.90
12166;DHT22;6146;48.128;11.476;2023-12-20T08:57:33;5.00;99.90
12166;DHT22;6146;48.128;11.476;2023-12-20T08:59:59;5.10;99.90
12166;DHT22;6146;48.128;11.476;2023-12-20T09:02:24;5.10;99.90
12166;DHT22;6146;48.128;11.476;2023-12-20T09:04:50;5.20;99.90
12166;DHT22;6146;48.128;11.476;2023-12-20T09:07:25;5.30;99.90
12166;DHT22;6146;48.128;11.476;2023-12-20T09:09:52;5.30;99.90
12166;DHT22;6146;48.128;11.476;2023-12-20T09:12:18;5.50;99.90
12166;DHT22;6146;48.128;11.476;2023-12-20T09:14:45;5.40;99.90
12166;DHT22;6146;48.128;11.476;2023-12-20T09:17:11;5.50;99.90
12166;DHT22;6146;48.128;11.476;2023-12-20T09:19:38;5.60;99.90
12166;DHT22;6146;48.128;11.476;2023-12-20T09:22:04;5.70;99.90
12166;DHT22;6146;48.128;11.476;2023-12-20T09:24:30;5.80;99.90
12166;DHT22;6146;48.128;11.476;2023-12-20T09:26:56;5.80;99.90
12166;DHT22;6146;48.128;11.476;2023-12-20T09:29:21;5.80;99.90
12166;DHT22;6146;48.128;11.476;2023-12-20T09:31:47;5.60;99.90
12166;DHT22;6146;48.128;11.476;2023-12-20T09:34:15;5.60;99.90
12166;DHT22;6146;48.128;11.476;2023-12-20T09:36:41;5.60;99.90
12166;DHT22;6146;48.128;11.476;2023-12-20T09:39:12;5.60;99.90
12166;DHT22;6146;48.128;11.476;2023-12-20T09:41:43;5.50;99.90
12166;DHT22;6146;48.128;11.476;2023-12-20T09:44:14;5.50;99.90
12166;DHT22;6146;48.128;11.476;2023-12-20T09:46:43;5.50;99.90
12166;DHT22;6146;48.128;11.476;2023-12-20T09:49:08;5.50;99.90
12166;DHT22;6146;48.128;11.476;2023-12-20T09:51:34;5.50;99.90
12166;DHT22;6146;48.128;11.476;2023-12-20T09:54:03;5.50;99.90
12166;DHT22;6146;48.128;11.476;2023-12-20T09:56:29;5.60;99.90
12166;DHT22;6146;48.128;11.476;2023-12-20T09:58:56;5.60;99.90
12166;DHT22;6146;48.128;11.476;2023-12-20T10:01:22;5.60;99.90
12166;DHT22;6146;48.128;11.476;2023-12-20T10:03:51;5.60;99.90
12166;DHT22;6146;48.128;11.476;2023-12-20T10:06:17;5.70;99.90
12166;DHT22;6146;48.128;11.476;2023-12-20T10:08:42;5.70;99.90
12166;DHT22;6146;48.128;11.476;2023-12-20T10:11:09;5.80;99.90
12166;DHT22;6146;48.128;11.476;2023-12-20T10:13:39;5.90;99.90
12166;DHT22;6146;48.128;11.476;2023-12-20T10:16:06;6.00;99.90
12166;DHT22;6146;48.128;11.476;2023-12-20T10:18:32;6.20;99.90
12166;DHT22;6146;48.128;11.476;2023-12-20T10:20:58;6.30;99.90
12166;DHT22;6146;48.128;11.476;2023-12-20T10:23:24;6.40;99.90
12166;DHT22;6146;48.128;11.476;2023-12-20T10:26:00;6.50;99.90
12166;DHT22;6146;48.128;11.476;2023-12-20T10:28:26;6.50;99.90
12166;DHT22;6146;48.128;11.476;2023-12-20T10:30:55;6.50;99.90
12166;DHT22;6146;48.128;11.476;2023-12-20T10:33:27;6.40;99.90
12166;DHT22;6146;48.128;11.476;2023-12-20T10:35:54;6.40;99.90
12166;DHT22;6146;48.128;11.476;2023-12-20T10:38:20;6.40;99.90
12166;DHT22;6146;48.128;11.476;2023-12-20T10:40:46;6.40;99.90
12166;DHT22;6146;48.128;11.476;2023-12-20T10:43:12;6.40;99.90
12166;DHT22;6146;48.128;11.476;2023-12-20T10:45:38;6.40;99.90
12166;DHT22;6146;48.128;11.476;2023-12-20T10:48:04;6.40;99.90
12166;DHT22;6146;48.128;11.476;2023-12-20T10:50:31;6.20;99.90
12166;DHT22;6146;48.128;11.476;2023-12-20T10:52:57;6.20;99.90
12166;DHT22;6146;48.128;11.476;2023-12-20T10:55:24;6.10;99.90
12166;DHT22;6146;48.128;11.476;2023-12-20T10:58:16;7.10;99.90
12166;DHT22;6146;48.128;11.476;2023-12-20T11:00:44;6.00;99.90
12166;DHT22;6146;48.128;11.476;2023-12-20T11:03:11;6.00;99.90
12166;DHT22;6146;48.128;11.476;2023-12-20T11:08:13;5.80;99.90
12166;DHT22;6146;48.128;11.476;2023-12-20T11:10:59;5.70;99.90
12166;DHT22;6146;48.128;11.476;2023-12-20T11:15:59;5.80;99.90
12166;DHT22;6146;48.128;11.476;2023-12-20T11:18:29;5.80;99.90
12166;DHT22;6146;48.128;11.476;2023-12-20T11:21:02;5.80;99.90
12166;DHT22;6146;48.128;11.476;2023-12-20T11:23:29;5.80;99.90
12166;DHT22;6146;48.128;11.476;2023-12-20T11:25:56;5.80;99.90
12166;DHT22;6146;48.128;11.476;2023-12-20T11:28:26;5.90;99.90
12166;DHT22;6146;48.128;11.476;2023-12-20T11:30:53;6.00;99.90
12166;DHT22;6146;48.128;11.476;2023-12-20T11:35:56;6.10;99.90
12166;DHT22;6146;48.128;11.476;2023-12-20T11:38:22;6.10;99.90
12166;DHT22;6146;48.128;11.476;2023-12-20T11:40:49;6.20;99.90
12166;DHT22;6146;48.128;11.476;2023-12-20T11:43:37;6.20;99.90
12166;DHT22;6146;48.128;11.476;2023-12-20T11:46:04;6.30;99.90
12166;DHT22;6146;48.128;11.476;2023-12-20T11:48:31;6.50;99.90
12166;DHT22;6146;48.128;11.476;2023-12-20T11:50:58;6.50;99.90
12166;DHT22;6146;48.128;11.476;2023-12-20T11:53:23;6.50;99.90
12166;DHT22;6146;48.128;11.476;2023-12-20T11:55:49;6.70;99.90
12166;DHT22;6146;48.128;11.476;2023-12-20T11:58:15;6.70;99.90
12166;DHT22;6146;48.128;11.476;2023-12-20T12:00:42;6.80;99.90
12166;DHT22;6146;48.128;11.476;2023-12-20T12:03:09;6.80;99.90
12166;DHT22;6146;48.128;11.476;2023-12-20T12:05:34;6.80;99.90
12166;DHT22;6146;48.128;11.476;2023-12-20T12:08:04;6.80;99.90
12166;DHT22;6146;48.128;11.476;2023-12-20T12:10:30;6.70;99.90
12166;DHT22;6146;48.128;11.476;2023-12-20T12:12:56;6.80;99.90
12166;DHT22;6146;48.128;11.476;2023-12-20T12:15:21;6.80;99.90
12166;DHT22;6146;48.128;11.476;2023-12-20T12:17:54;6.80;99.90
12166;DHT22;6146;48.128;11.476;2023-12-20T12:20:21;6.80;99.90
12166;DHT22;6146;48.128;11.476;2023-12-20T12:22:57;6.80;99.90
12166;DHT22;6146;48.128;11.476;2023-12-20T12:25:23;6.80;99.90
12166;DHT22;6146;48.128;11.476;2023-12-20T12:27:51;6.70;99.90
12166;DHT22;6146;48.128;11.476;2023-12-20T12:30:16;6.60;99.90
12166;DHT22;6146;48.128;11.476;2023-12-20T12:32:44;6.50;99.90
12166;DHT22;6146;48.128;11.476;2023-12-20T12:35:10;6.50;99.90
12166;DHT22;6146;48.128;11.476;2023-12-20T12:37:38;6.40;99.90
12166;DHT22;6146;48.128;11.476;2023-12-20T12:40:05;6.30;99.90
12166;DHT22;6146;48.128;11.476;2023-12-20T12:42:31;6.20;99.90
12166;DHT22;6146;48.128;11.476;2023-12-20T12:44:56;6.20;99.90
12166;DHT22;6146;48.128;11.476;2023-12-20T12:47:22;6.30;99.90
12166;DHT22;6146;48.128;11.476;2023-12-20T12:49:50;6.30;99.90
12166;DHT22;6146;48.128;11.476;2023-12-20T12:52:17;6.30;99.90
12166;DHT22;6146;48.128;11.476;2023-12-20T12:54:42;6.30;99.90
12166;DHT22;6146;48.128;11.476;2023-12-20T12:57:10;6.20;99.90
12166;DHT22;6146;48.128;11.476;2023-12-20T12:59:36;6.30;99.90
12166;DHT22;6146;48.128;11.476;2023-12-20T13:02:01;6.30;99.90
12166;DHT22;6146;48.128;11.476;2023-12-20T13:04:27;6.30;99.90
12166;DHT22;6146;48.128;11.476;2023-12-20T13:06:52;6.20;99.90
12166;DHT22;6146;48.128;11.476;2023-12-20T13:09:18;6.10;99.90
12166;DHT22;6146;48.128;11.476;2023-12-20T13:11:44;5.80;99.90
12166;DHT22;6146;48.128;11.476;2023-12-20T13:14:10;5.60;99.90
12166;DHT22;6146;48.128;11.476;2023-12-20T13:16:41;5.50;99.90
12166;DHT22;6146;48.128;11.476;2023-12-20T13:19:07;5.50;99.90
12166;DHT22;6146;48.128;11.476;2023-12-20T13:21:32;4.40;99.90
12166;DHT22;6146;48.128;11.476;2023-12-20T13:23:58;5.20;99.90
12166;DHT22;6146;48.128;11.476;2023-12-20T13:26:24;5.10;99.90
12166;DHT22;6146;48.128;11.476;2023-12-20T13:28:49;5.00;99.90
12166;DHT22;6146;48.128;11.476;2023-12-20T13:31:15;5.10;99.90
12166;DHT22;6146;48.128;11.476;2023-12-20T13:33:40;5.10;99.90
12166;DHT22;6146;48.128;11.476;2023-12-20T13:36:06;5.10;99.90
12166;DHT22;6146;48.128;11.476;2023-12-20T13:38:32;5.00;99.90
12166;DHT22;6146;48.128;11.476;2023-12-20T13:40:57;5.10;99.90
12166;DHT22;6146;48.128;11.476;2023-12-20T13:43:24;5.00;99.90
12166;DHT22;6146;48.128;11.476;2023-12-20T13:45:50;5.00;99.90
12166;DHT22;6146;48.128;11.476;2023-12-20T13:48:17;5.00;99.90
12166;DHT22;6146;48.128;11.476;2023-12-20T13:50:43;4.90;99.90
12166;DHT22;6146;48.128;11.476;2023-12-20T13:53:09;5.00;99.90
12166;DHT22;6146;48.128;11.476;2023-12-20T13:55:34;5.10;99.90
12166;DHT22;6146;48.128;11.476;2023-12-20T13:58:00;5.20;99.90
12166;DHT22;6146;48.128;11.476;2023-12-20T14:00:26;5.20;99.90
12166;DHT22;6146;48.128;11.476;2023-12-20T14:02:51;5.20;99.90
12166;DHT22;6146;48.128;11.476;2023-12-20T14:05:17;5.30;99.90
12166;DHT22;6146;48.128;11.476;2023-12-20T14:07:45;5.30;99.90
12166;DHT22;6146;48.128;11.476;2023-12-20T14:10:12;5.40;99.90
12166;DHT22;6146;48.128;11.476;2023-12-20T14:12:39;5.40;99.90
12166;DHT22;6146;48.128;11.476;2023-12-20T14:15:05;5.30;99.90
12166;DHT22;6146;48.128;11.476;2023-12-20T14:17:39;5.20;99.90
12166;DHT22;6146;48.128;11.476;2023-12-20T14:20:08;5.20;99.90
12166;DHT22;6146;48.128;11.476;2023-12-20T14:22:34;5.20;99.90
12166;DHT22;6146;48.128;11.476;2023-12-20T14:25:00;5.20;99.90
12166;DHT22;6146;48.128;11.476;2023-12-20T14:27:26;5.10;99.90
12166;DHT22;6146;48.128;11.476;2023-12-20T14:29:55;5.10;99.90
12166;DHT22;6146;48.128;11.476;2023-12-20T14:32:21;5.10;99.90
12166;DHT22;6146;48.128;11.476;2023-12-20T14:34:46;5.00;99.90
12166;DHT22;6146;48.128;11.476;2023-12-20T14:37:12;4.90;99.90
12166;DHT22;6146;48.128;11.476;2023-12-20T14:39:38;4.90;99.90
12166;DHT22;6146;48.128;11.476;2023-12-20T14:42:10;4.90;99.90
12166;DHT22;6146;48.128;11.476;2023-12-20T14:44:42;4.90;99.90
12166;DHT22;6146;48.128;11.476;2023-12-20T14:47:07;4.90;99.90
12166;DHT22;6146;48.128;11.476;2023-12-20T14:49:33;4.90;99.90
12166;DHT22;6146;48.128;11.476;2023-12-20T14:51:59;4.90;99.90
12166;DHT22;6146;48.128;11.476;2023-12-20T14:54:25;4.90;99.90
12166;DHT22;6146;48.128;11.476;2023-12-20T14:56:51;4.80;99.90
12166;DHT22;6146;48.128;11.476;2023-12-20T14:59:16;4.80;99.90
12166;DHT22;6146;48.128;11.476;2023-12-20T15:01:43;4.80;99.90
12166;DHT22;6146;48.128;11.476;2023-12-20T15:04:09;4.90;99.90
12166;DHT22;6146;48.128;11.476;2023-12-20T15:06:35;4.90;99.90
12166;DHT22;6146;48.128;11.476;2023-12-20T15:09:01;4.80;99.90
12166;DHT22;6146;48.128;11.476;2023-12-20T15:11:30;4.70;99.90
12166;DHT22;6146;48.128;11.476;2023-12-20T15:13:55;4.60;99.90
12166;DHT22;6146;48.128;11.476;2023-12-20T15:16:22;4.60;99.90
12166;DHT22;6146;48.128;11.476;2023-12-20T15:18:48;4.70;99.90
12166;DHT22;6146;48.128;11.476;2023-12-20T15:21:14;4.70;99.90
12166;DHT22;6146;48.128;11.476;2023-12-20T15:23:40;4.70;99.90
12166;DHT22;6146;48.128;11.476;2023-12-20T15:26:09;4.70;99.90
12166;DHT22;6146;48.128;11.476;2023-12-20T15:28:34;4.70;99.90
12166;DHT22;6146;48.128;11.476;2023-12-20T15:31:00;4.70;99.90
12166;DHT22;6146;48.128;11.476;2023-12-20T15:33:25;4.70;99.90
12166;DHT22;6146;48.128;11.476;2023-12-20T15:35:51;4.70;99.90
12166;DHT22;6146;48.128;11.476;2023-12-20T15:38:16;4.70;99.90
12166;DHT22;6146;48.128;11.476;2023-12-20T15:40:42;4.70;99.90
12166;DHT22;6146;48.128;11.476;2023-12-20T15:43:08;4.60;99.90
12166;DHT22;6146;48.128;11.476;2023-12-20T15:45:33;4.60;99.90